GMMNGMMI

Guest
Details From GMMN - Casablanca Mohammed V Intl
To GMMI - MOGADOR INTL
Flight Number -
Tags generated
Created
Modified
Stats Distance 159 nm / 295 km
Max Altitude 12,900 ft / 3,932 m
Waypoints 4
Social Downloads 1
Likes 0
Share VATSIM

Download

Looking for another format? Having issues loading an existing format? Contact us
Advertisement - Login to hide

Notes

Basic altitude profile: - Ascent Rate: 2500ft/min - Ascent Speed: 250kts - Cruise Altitude: 35000ft - Cruise Speed: 420kts - Descent Rate: 1500ft/min - Descent Speed: 250kts Options: - Use NATs: yes - Use PACOTS: yes - Use low airways: yes - Use high airways: no

Route

GMMN BARAM G5 ESS GMMI

ID Type Via Altitude Latitude Longitude Leg Dist Tot Dist Heading (true) Name
O GMMN APT - 0 ft / 0 m 33.36747˚ -7.58996˚ - 0 nm - Casablanca Mohammed V Intl
BARAM FIX - 12,900 ft / 3,932 m 32.24694˚ -8.90000˚ 94 nm 94 nm 225° / 224° -
ESS VOR G5 (AWY-LO) 6,500 ft / 1,981 m 31.40124˚ -9.68696˚ 64 nm 159 nm 219° / 218° ESSAOUIRA VOR-DME
O GMMI APT - 0 ft / 0 m 31.39709˚ -9.68204˚ 0 nm 159 nm 135° / 135° MOGADOR INTL

Altitude Profile

Advertisement - Login to hide

GMMN

Details ICAO GMMN (CMN)
Name Casablanca Mohammed V Intl
Region Morocco
Timezone Africa/Casablanca (UTC+0.0)
Stats Elevation 656 ft / 200 m (AMSL)
Location 33.367466° -7.589964°
Runways 2
Magnetic Variation 1.817° W

METAR

GMMN 141500Z 04008KT 350V080 CAVOK 17/08 Q1025 NOSIG

Decode

TAF

TAF TAF GMMN 141100Z 1412/1518 04012KT CAVOK BECMG 1420/1422 34004KT PROB30 TEMPO 1500/1506 3000 BR SCT010

Decode

Departure Runways

ID Width Length Bearing (true) Bearing (mag) Surface Threshold Offset Overrun Length
17L 148 ft / 45 m 12,224 ft / 3,726 m 164.03° 165.85° Asphalt 0 ft / 0 m 295 ft / 90 m
17R 148 ft / 45 m 12,196 ft / 3,717 m 164.03° 165.85° Asphalt 0 ft / 0 m 197 ft / 60 m
35L 148 ft / 45 m 12,196 ft / 3,717 m 344.04° 345.86° Asphalt 0 ft / 0 m 180 ft / 55 m
35R 148 ft / 45 m 12,224 ft / 3,726 m 344.04° 345.86° Asphalt 0 ft / 0 m 995 ft / 303 m

GMMI

Details ICAO GMMI (ESU)
Name MOGADOR INTL
Region Morocco
Timezone Africa/Casablanca (UTC+0.0)
Stats Elevation 384 ft / 117 m (AMSL)
Location 31.397091° -9.682044°
Runways 1
Magnetic Variation 2.529° W

METAR

GMMI 141500Z 33006KT 7000 NSC 20/12 Q1022 NOSIG

Decode

TAF

TAF GMMI 141100Z 1412/1518 34006KT 7000 NSC

Decode

Destination Runways

ID Width Length Bearing (true) Bearing (mag) Surface Threshold Offset Overrun Length
16 148 ft / 45 m 6,868 ft / 2,093 m 158.80° 161.33° Asphalt 0 ft / 0 m 0 ft / 0 m
34 148 ft / 45 m 6,868 ft / 2,093 m 338.80° 341.33° Asphalt 0 ft / 0 m 0 ft / 0 m

Popular Alternatives